Latest Coastal Weather Observations for Evans Head

IDN60701

Issued at 4:45 pm EST Tuesday 2 September 2014 (issued every 10 minutes, with the page automatically refreshed every 10 minutes)

About coastal observations | Map of coastal stations | Coastal observations for NSW | Marine services | Other Formats
Station Details ID: 058212 Name: EVANS HEAD RAAF BOMBING RANGE AWS Lat: -29.18 Lon: 153.40 Height: 62.5 m
Data from the previous 72 hours. | See also: Recent months at Evans Head
Date/Time
EST
Temp

°C
Wind Pressure Rain
since 9am
mm
Weather Cloud Vis
km
Sea
Height
m
Swell
Dir
 
Speed
knots
Gust
knots
hPa Trend Height
m
Period
s
Dir
02/04:36pm 22.9 WNW 16 27 1005.7 - 0.0 - - - - - - -
02/04:30pm 23.2 WNW 15 24 1005.7 - 0.0 - - - - - - -
02/04:00pm 24.2 WNW 15 28 1004.9 - 0.0 - - - - - - -
02/03:30pm 25.2 W 15 23 1004.8 - 0.0 - - - - - - -
02/03:00pm 24.6 SW 8 11 1004.5 - 0.0 - - - - - - -
02/02:30pm 26.7 NNW 11 17 1004.6 - 0.0 - - - - - - -
02/02:00pm 27.1 N 7 12 1004.5 - 0.0 - - - - - - -
02/01:30pm 26.6 N 9 15 1005.7 - 0.0 - - - - - - -
02/01:00pm 25.6 NNW 9 14 1006.2 - 0.0 - - - - - - -
02/12:30pm 25.8 NNW 9 15 1006.7 - 0.0 - - - - - - -
02/12:00pm 24.9 NNW 10 16 1007.3 - 0.0 - - - - - - -
02/11:30am 21.4 N 11 19 1007.8 - 0.0 - - - - - - -
02/11:00am 21.4 NNW 10 16 1008.6 - 0.0 - - - - - - -
02/10:30am 20.6 NNW 9 16 1009.1 - 0.0 - - - - - - -
02/10:00am 18.4 NNW 11 16 1009.8 - 0.0 - - - - - - -
02/09:30am 17.3 N 9 16 1010.5 - 0.0 - - - - - - -
02/09:00am 15.7 N 6 9 1010.8 - 0.0 - - - - - - -
02/08:30am 15.1 N 2 8 1011.3 - 0.0 - - - - - - -
02/08:00am 14.8 N 6 9 1011.3 - 0.0 - - - - - - -
02/07:30am 14.9 N 6 9 1011.8 - 0.0 - - - - - - -
02/07:00am 14.5 N 7 11 1011.4 - 0.0 - - - - - - -
02/06:30am 14.4 N 5 9 1011.1 - 0.0 - - - - - - -
02/06:00am 14.7 N 4 6 1011.3 - 0.0 - - - - - - -
02/05:30am 15.2 NNW 5 7 1011.7 - 0.0 - - - - - - -
02/05:00am 15.6 NNW 7 11 1011.4 - 0.0 - - - - - - -
02/04:30am 15.4 NNW 9 15 1011.8 - 0.0 - - - - - - -
02/04:00am 15.0 NNW 7 11 1011.5 - 0.0 - - - - - - -
02/03:30am 15.0 N 5 8 1011.9 - 0.0 - - - - - - -
02/03:00am 14.8 NNW 5 8 1012.0 - 0.0 - - - - - - -
02/02:30am 14.2 N 5 7 1012.3 - 0.0 - - - - - - -
02/02:00am 14.3 N 7 9 1012.5 - 0.0 - - - - - - -
02/01:30am 14.5 N 7 10 1012.9 - 0.0 - - - - - - -
02/01:00am 14.1 N 8 11 1013.1 - 0.0 - - - - - - -
02/12:30am 14.3 N 7 12 1013.7 - 0.0 - - - - - - -
02/12:00am 14.5 N 8 10 1013.9 - 0.0 - - - - - - -
 
Date/Time
EST
Temp

°C
Wind Pressure Rain
since 9am
mm
Weather Cloud Vis
km
Sea
Height
m
Swell
Dir
 
Speed
knots
Gust
knots
hPa Trend Height
m
Period
s
Dir
01/11:30pm 14.6 N 7 10 1014.3 - 0.0 - - - - - - -
01/11:00pm 14.7 N 8 11 1014.2 - 0.0 - - - - - - -
01/10:30pm 14.8 N 8 11 1014.4 - 0.0 - - - - - - -
01/10:00pm 14.8 N 8 11 1014.2 - 0.0 - - - - - - -
01/09:30pm 15.1 N 8 12 1014.5 - 0.0 - - - - - - -
01/09:00pm 15.6 N 8 11 1014.6 - 0.0 - - - - - - -
01/08:30pm 16.2 N 8 11 1014.8 - 0.0 - - - - - - -
01/08:00pm 16.8 N 9 12 1014.6 - 0.0 - - - - - - -
01/07:30pm 17.3 N 10 14 1014.7 - 0.0 - - - - - - -
01/07:00pm 17.6 N 11 16 1014.3 - 0.0 - - - - - - -
01/06:30pm 17.8 N 10 14 1014.4 - 0.0 - - - - - - -
01/06:00pm 18.2 NNE 11 15 1013.9 - 0.0 - - - - - - -
01/05:30pm 18.5 N 11 18 1014.0 - 0.0 - - - - - - -
01/05:00pm 19.2 N 12 19 1013.9 - 0.0 - - - - - - -
01/04:30pm 19.8 N 12 18 1014.0 - 0.0 - - - - - - -
01/04:00pm 20.7 N 12 18 1013.6 - 0.0 - - - - - - -
01/03:30pm 21.2 N 12 20 1014.0 - 0.0 - - - - - - -
01/03:00pm 22.1 N 10 16 1014.1 - 0.0 - - - - - - -
01/02:30pm 22.3 N 10 17 1014.6 - 0.0 - - - - - - -
01/02:00pm 22.6 N 10 16 1014.7 - 0.0 - - - - - - -
01/01:30pm 23.8 N 10 17 1015.2 - 0.0 - - - - - - -
01/01:00pm 23.9 N 10 15 1015.3 - 0.0 - - - - - - -
01/12:30pm 22.4 NE 9 16 1015.9 - 0.0 - - - - - - -
01/12:00pm 24.3 N 7 12 1016.4 - 0.0 - - - - - - -
01/11:30am 25.1 N 9 14 1017.2 - 0.0 - - - - - - -
01/11:00am 25.1 N 7 11 1017.6 - 0.0 - - - - - - -
01/10:30am 23.5 NW 6 9 1018.5 - 0.0 - - - - - - -
01/10:00am 22.6 NNW 7 13 1018.5 - 0.0 - - - - - - -
01/09:30am 22.4 NNW 9 15 1018.9 - 0.0 - - - - - - -
01/09:00am 21.5 NNW 5 9 1018.9 - 0.0 - - - - - - -
01/08:30am 19.9 WNW 4 7 1019.1 - 0.0 - - - - - - -
01/08:00am 18.4 NW 5 8 1018.9 - 0.0 - - - - - - -
01/07:30am 15.8 WNW 3 5 1018.9 - 0.0 - - - - - - -
01/07:00am 15.1 WNW 3 5 1018.5 - 0.0 - - - - - - -
01/06:30am 14.5 NW 4 5 1018.5 - 0.0 - - - - - - -
01/06:00am 14.0 NNW 4 6 1018.3 - 0.0 - - - - - - -
01/05:30am 14.1 NW 4 5 1017.9 - 0.0 - - - - - - -
01/05:00am 14.3 NW 4 5 1017.7 - 0.0 - - - - - - -
01/04:30am 14.2 N 4 5 1017.7 - 0.0 - - - - - - -
01/04:00am 14.5 NNW 5 6 1017.6 - 0.0 - - - - - - -
01/03:30am 15.1 NW 4 5 1017.6 - 0.0 - - - - - - -
01/03:00am 15.6 WNW 4 6 1017.8 - 0.0 - - - - - - -
01/02:30am 15.6 WNW 5 5 1017.8 - 0.0 - - - - - - -
01/02:00am 15.6 W 5 6 1017.9 - 0.0 - - - - - - -
01/01:30am 15.5 W 5 7 1018.2 - 0.0 - - - - - - -
01/01:00am 15.7 W 5 7 1018.3 - 0.0 - - - - - - -
01/12:30am 15.6 W 5 7 1018.4 - 0.0 - - - - - - -
01/12:00am 15.5 WNW 6 7 1018.4 - 0.0 - - - - - - -
 
Date/Time
EST
Temp

°C
Wind Pressure Rain
since 9am
mm
Weather Cloud Vis
km
Sea
Height
m
Swell
Dir
 
Speed
knots
Gust
knots
hPa Trend Height
m
Period
s
Dir
31/11:30pm 15.8 WNW 5 6 1018.5 - 0.0 - - - - - - -
31/11:00pm 16.3 W 5 6 1018.5 - 0.0 - - - - - - -
31/10:30pm 16.3 S 3 5 1018.7 - 0.0 - - - - - - -
31/10:00pm 16.4 S 6 7 1018.4 - 0.0 - - - - - - -
31/09:30pm 16.3 SSE 8 10 1018.5 - 0.0 - - - - - - -
31/09:00pm 16.5 SSE 8 9 1018.4 - 0.0 - - - - - - -
31/08:30pm 16.8 SSE 7 10 1018.7 - 0.0 - - - - - - -
31/08:00pm 17.0 SSE 6 9 1018.5 - 0.0 - - - - - - -
31/07:30pm 17.0 SE 8 13 1018.4 - 0.0 - - - - - - -
31/07:00pm 16.5 SSE 7 9 1018.0 - 0.0 - - - - - - -
31/06:30pm 16.6 SSE 8 13 1017.7 - 0.0 - - - - - - -
31/06:00pm 16.9 SSE 9 12 1017.4 - 0.0 - - - - - - -
31/05:30pm 17.0 SSE 9 13 1017.2 - 0.0 - - - - - - -
31/05:00pm 17.4 SSE 9 13 1016.9 - 0.0 - - - - - - -
31/04:30pm 18.2 SSE 10 13 1016.9 - 0.0 - - - - - - -
31/04:00pm 18.8 S 10 15 1016.6 - 0.0 - - - - - - -
31/03:30pm 19.1 SE 11 14 1016.5 - 0.0 - - - - - - -
31/03:00pm 19.7 S 12 17 1016.4 - 0.0 - - - - - - -
31/02:30pm 20.0 SSE 11 16 1016.6 - 0.0 - - - - - - -
31/02:00pm 20.4 SSE 12 16 1016.6 - 0.0 - - - - - - -
31/01:30pm 20.0 SSE 13 18 1016.9 - 0.0 - - - - - - -
31/01:00pm 20.7 SSE 13 18 1017.2 - 0.0 - - - - - - -
31/12:30pm 20.7 SSE 13 17 1017.6 - 0.0 - - - - - - -
31/12:00pm 20.6 S 12 15 1017.9 - 0.0 - - - - - - -
31/11:30am 20.9 SSE 9 12 1018.2 - 0.0 - - - - - - -
31/11:00am 20.8 SSE 11 13 1018.3 - 0.0 - - - - - - -
31/10:30am 19.9 S 11 18 1018.7 - 0.0 - - - - - - -
31/10:00am 20.5 S 12 18 1018.8 - 0.0 - - - - - - -
31/09:30am 19.4 SSW 7 12 1019.0 - 0.0 - - - - - - -
31/09:00am 18.9 SW 7 11 1019.1 - 0.0 - - - - - - -
31/08:30am 18.2 WSW 7 10 1019.2 - 0.0 - - - - - - -
31/08:00am 17.2 WSW 7 9 1019.1 - 0.0 - - - - - - -
31/07:30am 15.7 WSW 7 13 1019.2 - 0.0 - - - - - - -
31/07:00am 15.3 W 6 7 1018.9 - 0.0 - - - - - - -
31/06:30am 14.8 W 6 7 1018.8 - 0.0 - - - - - - -
31/06:00am 14.7 W 6 8 1018.4 - 0.0 - - - - - - -
31/05:30am 14.8 W 6 8 1018.1 - 0.0 - - - - - - -
31/05:00am 15.1 W 6 8 1017.9 - 0.0 - - - - - - -
31/04:30am 15.0 W 6 8 1017.9 - 0.0 - - - - - - -
31/04:00am 15.2 WSW 7 9 1017.5 - 0.0 - - - - - - -
31/03:30am 15.1 WSW 7 10 1017.5 - 0.0 - - - - - - -
31/03:00am 15.1 WSW 8 9 1017.4 - 0.0 - - - - - - -
31/02:30am 14.7 WSW 8 9 1017.6 - 0.0 - - - - - - -
31/02:00am 14.8 WSW 7 10 1017.6 - 0.0 - - - - - - -
31/01:30am 14.8 WSW 8 10 1017.9 - 0.0 - - - - - - -
31/01:00am 15.1 WSW 8 9 1017.9 - 0.0 - - - - - - -
31/12:30am 14.9 WSW 7 9 1018.1 - 0.0 - - - - - - -
31/12:00am 14.9 WSW 9 10 1018.2 - 0.0 - - - - - - -
 
Date/Time
EST
Temp

°C
Wind Pressure Rain
since 9am
mm
Weather Cloud Vis
km
Sea
Height
m
Swell
Dir
 
Speed
knots
Gust
knots
hPa Trend Height
m
Period
s
Dir
30/11:30pm 14.9 SW 8 10 1018.4 - 0.0 - - - - - - -
30/11:00pm 15.0 SW 7 9 1018.3 - 0.0 - - - - - - -
30/10:30pm 15.1 SW 8 11 1018.3 - 0.0 - - - - - - -
30/10:00pm 15.3 SSW 9 12 1018.1 - 0.0 - - - - - - -
30/09:30pm 15.6 SSW 10 13 1018.2 - 0.0 - - - - - - -
30/09:00pm 15.9 SSW 10 14 1018.0 - 0.0 - - - - - - -
30/08:30pm 16.3 SSW 9 13 1018.1 - 0.0 - - - - - - -
30/08:00pm 16.5 SSW 9 13 1017.9 - 0.0 - - - - - - -
30/07:30pm 16.8 SSW 8 12 1017.8 - 0.0 - - - - - - -
30/07:00pm 17.0 S 12 18 1017.5 - 0.0 - - - - - - -
30/06:30pm 17.2 S 12 16 1017.4 - 0.0 - - - - - - -
30/06:00pm 17.3 S 13 18 1017.3 - 0.0 - - - - - - -
30/05:30pm 17.3 SSW 10 14 1017.2 - 0.0 - - - - - - -
30/05:00pm 17.9 S 11 16 1016.9 - 0.0 - - - - - - -

Other Formats:

Comma delimited format used in spreadsheet applications
http://www.bom.gov.au/fwo/IDN60701/IDN60701.94598.axf

JavaScript Object Notation format (JSON) in row-major order
http://www.bom.gov.au/fwo/IDN60701/IDN60701.94598.json